createdAt,value
2022-08-07T00:00:27.238Z,16.77
2022-08-07T00:05:28.903Z,16.73
2022-08-07T00:10:31.613Z,16.7
2022-08-07T00:15:36.319Z,16.7
2022-08-07T00:20:34.212Z,16.65
2022-08-07T00:25:37.365Z,16.64
2022-08-07T00:30:37.264Z,16.65
2022-08-07T00:35:39.104Z,16.64
2022-08-07T00:40:40.948Z,16.65
2022-08-07T00:45:42.659Z,16.62
2022-08-07T00:50:51.470Z,16.62
2022-08-07T00:56:00.262Z,16.59
2022-08-07T01:00:51.409Z,16.58
2022-08-07T01:05:51.744Z,16.54
2022-08-07T01:10:54.345Z,16.54
2022-08-07T01:16:00.751Z,16.52
2022-08-07T01:20:57.182Z,16.5
2022-08-07T01:25:56.404Z,16.46
2022-08-07T01:30:58.020Z,16.45
2022-08-07T01:36:06.101Z,16.42
2022-08-07T01:41:00.317Z,16.41
2022-08-07T01:46:02.094Z,16.37
2022-08-07T01:51:08.319Z,16.32
2022-08-07T01:56:05.210Z,16.29
2022-08-07T02:01:09.305Z,16.23
2022-08-07T02:06:09.072Z,16.15
2022-08-07T02:11:10.360Z,16.11
2022-08-07T02:16:11.914Z,16.06
2022-08-07T02:21:13.845Z,15.99
2022-08-07T02:26:32.106Z,15.93
2022-08-07T02:31:28.023Z,15.85
2022-08-07T02:36:27.434Z,15.76
2022-08-07T02:41:21.618Z,15.69
2022-08-07T02:46:20.998Z,15.62
2022-08-07T02:51:29.184Z,15.54
2022-08-07T02:56:24.718Z,15.49
2022-08-07T03:01:34.974Z,15.44
2022-08-07T03:06:32.783Z,15.37
2022-08-07T03:11:29.190Z,15.32
2022-08-07T03:16:31.078Z,15.25
2022-08-07T03:21:32.803Z,15.2
2022-08-07T03:26:33.900Z,15.14
2022-08-07T03:31:42.994Z,15.14
2022-08-07T03:36:36.636Z,15.1
2022-08-07T03:41:41.655Z,15.08
2022-08-07T03:47:11.620Z,15.05
2022-08-07T03:51:46.877Z,15.04
2022-08-07T03:56:59.711Z,15.01
2022-08-07T04:01:45.286Z,14.96
2022-08-07T04:06:46.765Z,14.91
2022-08-07T04:12:26.098Z,14.85
2022-08-07T04:16:58.417Z,14.82
2022-08-07T04:21:59.018Z,14.79
2022-08-07T04:26:53.426Z,14.67
2022-08-07T04:32:02.857Z,14.63
2022-08-07T04:36:56.964Z,14.6
2022-08-07T04:41:58.422Z,14.61
2022-08-07T04:47:05.098Z,14.62
2022-08-07T04:52:01.822Z,14.61
2022-08-07T04:58:09.025Z,14.58
2022-08-07T05:02:05.039Z,14.58
2022-08-07T05:07:09.523Z,14.59
2022-08-07T05:12:08.773Z,14.64
2022-08-07T05:17:11.618Z,14.74
2022-08-07T05:22:12.502Z,14.84
2022-08-07T05:27:14.405Z,14.91
2022-08-07T05:32:15.265Z,14.97
2022-08-07T05:37:20.040Z,15.02
2022-08-07T05:42:33.559Z,15.08
2022-08-07T05:47:21.003Z,15.11
2022-08-07T05:52:29.958Z,15.18
2022-08-07T05:57:23.798Z,15.3
2022-08-07T06:02:28.963Z,15.39
2022-08-07T06:08:15.073Z,15.47
2022-08-07T06:12:31.952Z,15.57
2022-08-07T06:17:30.675Z,15.72
2022-08-07T06:22:34.416Z,15.85
2022-08-07T06:27:44.585Z,16.01
2022-08-07T06:32:43.897Z,16.21
2022-08-07T06:37:43.324Z,16.42
2022-08-07T06:42:38.308Z,16.61
2022-08-07T06:47:48.438Z,16.87
2022-08-07T06:52:41.497Z,17.06
2022-08-07T06:57:47.716Z,17.11
2022-08-07T07:02:49.418Z,17.19
2022-08-07T07:07:58.870Z,17.41
2022-08-07T07:12:48.608Z,17.57
2022-08-07T07:17:50.357Z,17.69
2022-08-07T07:24:05.106Z,17.87
2022-08-07T07:27:55.999Z,17.96
2022-08-07T07:32:54.535Z,18.39
2022-08-07T07:38:02.286Z,18.39
2022-08-07T07:42:58.832Z,18.43
2022-08-07T07:48:00.863Z,18.4
2022-08-07T07:53:02.303Z,18.45
2022-08-07T07:58:04.072Z,18.56
2022-08-07T08:03:07.012Z,18.68
2022-08-07T08:08:07.480Z,19.06
2022-08-07T08:13:10.439Z,19.62
2022-08-07T08:13:15.883Z,19.62
2022-08-07T08:18:18.613Z,20.09
2022-08-07T08:23:19.218Z,20.29
2022-08-07T08:28:23.680Z,20.52
2022-08-07T08:33:23.298Z,20.37
2022-08-07T08:38:25.771Z,20.66
2022-08-07T08:43:31.902Z,20.77
2022-08-07T08:48:28.575Z,21.03
2022-08-07T08:53:29.270Z,21.29
2022-08-07T08:58:30.569Z,21.31
2022-08-07T09:03:47.865Z,21.18
2022-08-07T09:08:34.622Z,21.08
2022-08-07T09:13:37.231Z,21.13
2022-08-07T09:24:30.038Z,21.89
2022-08-07T09:30:02.716Z,21.9
2022-08-07T09:38:50.020Z,22.24
2022-08-07T09:58:52.189Z,23.29
2022-08-07T10:29:02.126Z,22.25
2022-08-07T10:34:07.107Z,22.09
2022-08-07T10:39:06.254Z,21.92
2022-08-07T10:44:08.177Z,22.07
2022-08-07T10:49:09.666Z,22.35
2022-08-07T10:59:15.548Z,22.79
2022-08-07T11:04:31.140Z,22.67
2022-08-07T11:10:08.246Z,22.94
2022-08-07T11:14:43.257Z,23.24
2022-08-07T11:19:21.485Z,23.49
2022-08-07T11:24:21.954Z,23.33
2022-08-07T11:29:41.588Z,23.5
2022-08-07T11:34:24.638Z,24.15
2022-08-07T11:39:25.911Z,24.37
2022-08-07T11:44:27.172Z,24.44
2022-08-07T11:49:50.989Z,24.26
2022-08-07T11:54:30.630Z,23.48
2022-08-07T12:00:09.051Z,22.91
2022-08-07T12:04:34.168Z,23.06
2022-08-07T12:09:35.595Z,23.11
2022-08-07T12:14:36.987Z,23.56
2022-08-07T12:19:56.914Z,23.43
2022-08-07T12:24:40.163Z,23.25
2022-08-07T12:29:41.914Z,23.28
2022-08-07T12:34:49.253Z,23.34
2022-08-07T12:39:45.076Z,23.7
2022-08-07T12:44:45.899Z,23.84
2022-08-07T12:49:51.089Z,24.08
2022-08-07T12:54:54.420Z,23.92
2022-08-07T12:59:54.105Z,24.14
2022-08-07T13:05:01.032Z,24.07
2022-08-07T13:10:11.136Z,23.92
2022-08-07T13:14:55.233Z,24.01
2022-08-07T13:19:55.957Z,24.01
2022-08-07T13:24:57.202Z,23.76
2022-08-07T13:29:59.238Z,23.93
2022-08-07T13:35:03.346Z,23.75
2022-08-07T13:40:34.800Z,23.72
2022-08-07T13:45:21.189Z,23.87
2022-08-07T13:50:31.991Z,23.87
2022-08-07T13:55:08.383Z,23.96
2022-08-07T14:00:13.530Z,23.74
2022-08-07T14:05:11.949Z,23.75
2022-08-07T14:10:17.878Z,23.47
2022-08-07T14:15:15.739Z,23.34
2022-08-07T14:20:41.511Z,23.43
2022-08-07T14:25:18.220Z,23.43
2022-08-07T14:30:27.777Z,23.45
2022-08-07T14:35:34.434Z,23.22
2022-08-07T14:40:26.496Z,23.39
2022-08-07T14:45:25.677Z,23.5
2022-08-07T14:50:27.745Z,23.42
2022-08-07T14:55:31.746Z,23.49
2022-08-07T15:00:31.124Z,23.48
2022-08-07T15:05:32.780Z,23.45
2022-08-07T15:10:33.806Z,23.45
2022-08-07T15:15:38.488Z,23.44
2022-08-07T15:20:54.545Z,23.23
2022-08-07T15:25:39.044Z,23.29
2022-08-07T15:30:59.730Z,23.16
2022-08-07T15:36:01.028Z,23.13
2022-08-07T15:40:48.979Z,22.93
2022-08-07T15:45:56.679Z,22.86
2022-08-07T15:55:53.242Z,22.77
2022-08-07T16:00:49.765Z,22.71
2022-08-07T16:05:51.113Z,22.63
2022-08-07T16:10:52.551Z,22.55
2022-08-07T16:15:55.856Z,22.39
2022-08-07T16:21:44.384Z,22.34
2022-08-07T16:25:56.826Z,22.27
2022-08-07T16:30:58.015Z,22.21
2022-08-07T16:35:59.933Z,22.09
2022-08-07T16:41:02.640Z,22.03
2022-08-07T16:46:21.675Z,21.88
2022-08-07T16:51:13.719Z,21.88
2022-08-07T16:56:07.130Z,21.91
2022-08-07T17:01:08.856Z,21.79
2022-08-07T17:06:20.051Z,21.75
2022-08-07T17:11:12.232Z,21.69
2022-08-07T17:16:13.481Z,21.65
2022-08-07T17:21:18.672Z,21.57
2022-08-07T17:26:22.994Z,21.49
2022-08-07T17:31:18.410Z,21.46
2022-08-07T17:36:21.057Z,21.41
2022-08-07T17:42:03.257Z,21.25
2022-08-07T17:46:34.337Z,21.17
2022-08-07T17:51:25.672Z,21.05
2022-08-07T17:56:29.422Z,20.96
2022-08-07T18:01:36.353Z,20.85
2022-08-07T18:06:37.340Z,20.77
2022-08-07T18:12:06.377Z,20.7
2022-08-07T18:16:34.232Z,20.6
2022-08-07T18:21:42.553Z,20.53
2022-08-07T18:26:37.483Z,20.45
2022-08-07T18:31:40.679Z,20.39
2022-08-07T18:36:40.101Z,20.33
2022-08-07T18:41:44.824Z,20.25
2022-08-07T18:46:46.135Z,20.18
2022-08-07T18:52:25.745Z,20.09
2022-08-07T18:56:57.795Z,19.99
2022-08-07T19:02:06.871Z,19.89
2022-08-07T19:06:49.432Z,19.79
2022-08-07T19:12:04.346Z,19.71
2022-08-07T19:17:06.235Z,19.64
2022-08-07T19:22:04.503Z,19.56
2022-08-07T19:28:31.568Z,19.45
2022-08-07T19:32:05.622Z,19.37
2022-08-07T19:37:09.759Z,19.29
2022-08-07T19:42:05.575Z,19.24
2022-08-07T19:47:02.403Z,19.17
2022-08-07T19:52:04.188Z,19.11
2022-08-07T19:57:53.100Z,19.03
2022-08-07T20:02:10.145Z,18.96
2022-08-07T20:07:10.165Z,18.9
2022-08-07T20:12:23.480Z,18.84
2022-08-07T20:17:13.030Z,18.74
2022-08-07T20:22:14.918Z,18.64
2022-08-07T20:27:22.302Z,18.56
2022-08-07T20:32:22.544Z,18.44
2022-08-07T20:37:20.130Z,18.33
2022-08-07T20:42:22.029Z,18.2
2022-08-07T20:47:24.951Z,18.08
2022-08-07T20:52:30.158Z,17.96
2022-08-07T20:57:26.222Z,17.86
2022-08-07T21:02:28.457Z,17.75
2022-08-07T21:07:29.975Z,17.65
2022-08-07T21:12:31.878Z,17.56
2022-08-07T21:18:10.968Z,17.45
2022-08-07T21:22:35.193Z,17.37
2022-08-07T21:27:39.731Z,17.25
2022-08-07T21:32:42.220Z,17.15
2022-08-07T21:37:57.709Z,17.01
2022-08-07T21:42:46.313Z,16.94
2022-08-07T21:47:46.595Z,16.84
2022-08-07T21:52:45.237Z,16.76
2022-08-07T21:57:52.505Z,16.67
2022-08-07T22:12:51.492Z,16.42
2022-08-07T22:17:53.204Z,16.36
2022-08-07T22:22:55.378Z,16.29
2022-08-07T22:28:05.989Z,16.21
2022-08-07T22:32:58.472Z,16.18
2022-08-07T22:38:02.319Z,16.12
2022-08-07T22:43:02.506Z,16.09
2022-08-07T22:48:04.087Z,16.06
2022-08-07T22:53:05.381Z,16.02
2022-08-07T22:58:07.094Z,15.97
2022-08-07T23:03:09.536Z,15.92
2022-08-07T23:08:12.176Z,15.85
2022-08-07T23:13:14.265Z,15.81
2022-08-07T23:18:14.909Z,15.75
2022-08-07T23:24:04.670Z,15.7
2022-08-07T23:28:20.975Z,15.63
2022-08-07T23:34:24.779Z,15.57
2022-08-07T23:38:36.440Z,15.51
2022-08-07T23:43:22.572Z,15.44
2022-08-07T23:48:24.960Z,15.39
2022-08-07T23:53:31.337Z,15.33
2022-08-07T23:58:27.899Z,15.26
